Time;durP1;ratioP1;P1;durP2;ratioP2;P2;SDS_P1;SDS_P2;PMS_P1;PMS_P2;Temp;Humidity;BMP_temperature;BMP_pressure;BME280_temperature;BME280_humidity;BME280_pressure;Samples;Min_cycle;Max_cycle;Signal;HPM_P1;HPM_P2
2021/06/24 00:02:02;;;;;;;7.93;5.90;;;17.50;99.90;;;;;;4937969;29;20181;-76
2021/06/24 00:04:31;;;;;;;11.10;8.50;;;17.70;99.90;;;;;;4936378;29;20960;-76
2021/06/24 00:06:57;;;;;;;14.00;10.77;;;17.70;99.90;;;;;;4935907;29;20430;-76
2021/06/24 00:09:23;;;;;;;16.90;9.93;;;17.70;99.90;;;;;;4955137;28;20431;-77
2021/06/24 00:11:48;;;;;;;14.60;10.23;;;17.80;99.90;;;;;;4939557;29;20417;-77
2021/06/24 00:14:14;;;;;;;16.97;10.80;;;17.80;99.90;;;;;;4956815;29;20633;-77
2021/06/24 00:16:39;;;;;;;17.13;9.10;;;17.70;99.90;;;;;;4956607;29;20279;-77
2021/06/24 00:19:05;;;;;;;10.13;8.63;;;17.50;99.90;;;;;;4956785;29;20257;-77
2021/06/24 00:21:31;;;;;;;11.00;7.30;;;17.50;99.90;;;;;;4956679;29;20256;-77
2021/06/24 00:23:56;;;;;;;8.80;6.80;;;17.50;99.90;;;;;;4939401;29;20547;-77
2021/06/24 00:26:22;;;;;;;10.93;7.27;;;17.50;99.90;;;;;;4939467;29;20188;-77
2021/06/24 00:28:47;;;;;;;8.33;5.80;;;17.60;99.90;;;;;;4956660;29;20185;-77
2021/06/24 00:31:13;;;;;;;9.23;5.80;;;17.60;99.90;;;;;;4956463;29;20448;-77
2021/06/24 00:33:39;;;;;;;5.83;5.23;;;17.40;99.90;;;;;;4956589;29;20249;-77
2021/06/24 00:36:04;;;;;;;9.23;5.30;;;17.50;99.90;;;;;;4956782;29;20179;-77
2021/06/24 00:38:30;;;;;;;5.90;5.00;;;17.50;99.90;;;;;;4939239;29;20232;-77
2021/06/24 00:40:56;;;;;;;11.57;5.53;;;17.40;99.90;;;;;;4956247;29;20295;-77
2021/06/24 00:43:23;;;;;;;8.50;4.37;;;17.40;99.90;;;;;;4955986;29;20198;-77
2021/06/24 00:45:49;;;;;;;7.13;4.67;;;17.30;99.90;;;;;;4956301;29;20784;-77
2021/06/24 00:48:15;;;;;;;7.27;4.93;;;17.30;99.90;;;;;;4944999;29;20419;-77
2021/06/24 00:50:42;;;;;;;7.40;4.57;;;17.30;99.90;;;;;;4956159;29;20180;-76
2021/06/24 00:53:09;;;;;;;7.03;4.70;;;17.30;99.90;;;;;;4955733;29;20196;-76
2021/06/24 00:55:41;;;;;;;5.10;4.00;;;17.20;99.90;;;;;;4956107;29;20419;-76
2021/06/24 00:58:09;;;;;;;4.93;4.33;;;17.20;99.90;;;;;;4956051;29;20423;-77
2021/06/24 01:00:36;;;;;;;4.93;4.40;;;17.20;99.90;;;;;;4955929;29;20455;-77
2021/06/24 01:03:02;;;;;;;8.70;5.00;;;17.30;99.90;;;;;;4956015;29;20646;-76
2021/06/24 01:05:28;;;;;;;6.23;5.00;;;17.20;99.90;;;;;;4938709;29;20916;-76
2021/06/24 01:07:53;;;;;;;7.00;4.50;;;17.20;99.90;;;;;;4955821;29;20921;-76
2021/06/24 01:10:19;;;;;;;5.33;4.80;;;17.10;99.90;;;;;;4956128;29;20711;-76
2021/06/24 01:12:45;;;;;;;10.13;4.43;;;17.20;99.90;;;;;;4955492;29;20275;-76
2021/06/24 01:15:11;;;;;;;6.83;4.83;;;17.20;99.90;;;;;;4955628;29;20465;-76
2021/06/24 01:17:36;;;;;;;5.37;4.83;;;17.30;99.90;;;;;;4955847;29;20239;-77
2021/06/24 01:20:04;;;;;;;7.93;4.37;;;17.40;99.90;;;;;;4955224;28;20989;-77
2021/06/24 01:22:29;;;;;;;8.10;4.77;;;17.40;99.90;;;;;;4937344;29;20208;-77
2021/06/24 01:24:55;;;;;;;8.10;4.80;;;17.40;99.90;;;;;;4955617;29;20417;-77
2021/06/24 01:27:20;;;;;;;5.50;4.17;;;17.40;99.90;;;;;;4955537;29;20176;-76
2021/06/24 01:29:46;;;;;;;4.60;4.20;;;17.30;99.90;;;;;;4955733;29;20239;-76
2021/06/24 01:32:11;;;;;;;4.80;4.30;;;17.30;99.90;;;;;;4955019;29;20263;-77
2021/06/24 01:34:38;;;;;;;7.13;5.10;;;17.30;99.90;;;;;;4955301;29;20282;-76
2021/06/24 01:37:05;;;;;;;9.10;5.07;;;17.20;99.90;;;;;;4937949;29;20176;-76
2021/06/24 01:39:32;;;;;;;6.93;4.93;;;17.20;99.90;;;;;;4955376;29;20544;-77
2021/06/24 01:41:58;;;;;;;6.33;5.37;;;17.30;99.90;;;;;;4954817;29;20416;-76
2021/06/24 01:44:36;;;;;;;4.77;3.70;;;17.40;99.90;;;;;;4955188;29;20408;-77
2021/06/24 01:47:03;;;;;;;5.10;4.60;;;17.50;99.90;;;;;;4954995;29;20422;-76
2021/06/24 01:49:30;;;;;;;12.20;5.07;;;17.50;99.90;;;;;;4938012;29;20806;-76
2021/06/24 01:51:56;;;;;;;6.60;4.10;;;17.60;99.90;;;;;;4937439;29;20510;-77
2021/06/24 01:54:22;;;;;;;8.73;4.60;;;17.60;99.90;;;;;;4954979;29;20417;-76
2021/06/24 01:56:48;;;;;;;4.67;3.97;;;17.60;99.90;;;;;;4954966;29;20785;-76
2021/06/24 01:59:15;;;;;;;5.10;3.87;;;17.60;99.90;;;;;;4954894;29;20916;-76
2021/06/24 02:01:40;;;;;;;7.93;4.30;;;17.60;99.90;;;;;;4954597;29;20429;-76
2021/06/24 02:04:06;;;;;;;7.17;4.80;;;17.50;99.90;;;;;;4954727;29;20427;-77
2021/06/24 02:06:32;;;;;;;8.20;5.23;;;17.50;99.90;;;;;;4955017;29;20200;-77
2021/06/24 02:08:58;;;;;;;4.67;4.17;;;17.50;99.90;;;;;;4937496;29;20959;-77
2021/06/24 02:11:23;;;;;;;5.83;4.37;;;17.70;99.90;;;;;;4954609;29;20692;-77
2021/06/24 02:13:49;;;;;;;4.37;3.60;;;17.50;99.90;;;;;;4954561;29;20227;-77
2021/06/24 02:16:15;;;;;;;5.20;4.30;;;17.60;99.90;;;;;;4937288;29;20660;-76
2021/06/24 02:18:40;;;;;;;5.27;4.27;;;17.60;99.90;;;;;;4954507;29;20179;-77
2021/06/24 02:21:06;;;;;;;6.00;3.87;;;17.70;99.90;;;;;;4954333;29;20211;-77
2021/06/24 02:23:31;;;;;;;6.10;5.10;;;17.70;99.90;;;;;;4954474;29;20230;-77
2021/06/24 02:25:57;;;;;;;5.90;4.60;;;17.70;99.90;;;;;;4955008;29;20235;-77
2021/06/24 02:28:23;;;;;;;6.73;5.10;;;17.40;99.90;;;;;;4954326;29;20641;-76
2021/06/24 02:30:49;;;;;;;4.90;4.33;;;17.20;99.90;;;;;;4937039;29;20836;-77
2021/06/24 02:33:16;;;;;;;7.03;4.90;;;17.20;99.90;;;;;;4954025;28;20685;-76
2021/06/24 02:35:49;;;;;;;10.53;4.53;;;17.10;99.90;;;;;;4954297;29;20420;-76
2021/06/24 02:38:15;;;;;;;8.20;5.10;;;17.20;99.90;;;;;;4954424;29;20466;-76
2021/06/24 02:40:41;;;;;;;8.23;5.27;;;17.20;99.90;;;;;;4954245;29;20883;-76
2021/06/24 02:43:06;;;;;;;10.90;4.67;;;17.20;99.90;;;;;;4953920;29;20283;-76
2021/06/24 02:45:32;;;;;;;8.03;4.87;;;17.20;99.90;;;;;;4954142;29;20176;-76
2021/06/24 02:47:58;;;;;;;7.80;4.63;;;17.10;99.90;;;;;;4937020;29;20188;-77
2021/06/24 02:50:23;;;;;;;8.13;4.20;;;17.00;99.90;;;;;;4954146;29;20183;-77
2021/06/24 02:52:49;;;;;;;4.73;4.23;;;17.10;99.90;;;;;;4953880;29;20192;-77
2021/06/24 02:55:15;;;;;;;6.00;3.80;;;17.10;99.90;;;;;;4954155;29;20214;-76
2021/06/24 02:57:41;;;;;;;5.43;3.77;;;17.10;99.90;;;;;;4953912;29;20504;-76
2021/06/24 03:00:09;;;;;;;6.37;4.30;;;17.10;99.90;;;;;;4936506;29;20215;-77
2021/06/24 03:02:35;;;;;;;6.30;5.10;;;16.90;99.90;;;;;;4936489;29;20951;-77
2021/06/24 03:05:01;;;;;;;5.57;4.70;;;16.90;99.90;;;;;;4953820;29;20423;-76
2021/06/24 03:07:26;;;;;;;5.73;4.40;;;16.90;99.90;;;;;;4953853;29;20915;-76
2021/06/24 03:09:52;;;;;;;6.50;4.17;;;17.00;99.90;;;;;;4953608;29;20180;-76
2021/06/24 03:12:17;;;;;;;6.43;4.77;;;16.90;99.90;;;;;;4953370;29;20204;-76
2021/06/24 03:14:43;;;;;;;6.17;4.20;;;16.90;99.90;;;;;;4920645;29;20287;-76
2021/06/24 03:17:08;;;;;;;7.67;4.13;;;16.80;99.90;;;;;;4953650;29;20199;-77
2021/06/24 03:19:34;;;;;;;5.40;4.77;;;16.90;99.90;;;;;;4936261;29;20204;-76
2021/06/24 03:21:59;;;;;;;14.83;4.30;;;16.80;99.90;;;;;;4935884;29;20172;-76
2021/06/24 03:24:25;;;;;;;6.80;5.20;;;16.80;99.90;;;;;;4953469;29;20195;-76
2021/06/24 03:26:51;;;;;;;8.60;4.50;;;16.80;99.90;;;;;;4953448;29;20207;-75
2021/06/24 03:29:16;;;;;;;7.67;5.07;;;16.80;99.90;;;;;;4953495;29;20180;-76
2021/06/24 03:31:42;;;;;;;5.80;5.03;;;16.80;99.90;;;;;;4953115;29;20544;-77
2021/06/24 03:34:08;;;;;;;7.77;4.73;;;16.80;99.90;;;;;;4953281;29;20196;-76
2021/06/24 03:36:33;;;;;;;5.80;4.83;;;16.80;99.90;;;;;;4936275;29;20176;-76
2021/06/24 03:38:59;;;;;;;6.60;4.40;;;16.80;99.90;;;;;;4953320;29;20172;-76
2021/06/24 03:41:29;;;;;;;10.73;5.00;;;16.80;99.90;;;;;;4936069;29;20673;-76
2021/06/24 03:43:56;;;;;;;9.37;4.63;;;16.80;99.90;;;;;;4954060;28;20627;-76
2021/06/24 03:46:25;;;;;;;7.37;5.40;;;16.80;99.90;;;;;;4940072;29;20420;-76
2021/06/24 03:48:52;;;;;;;5.00;4.50;;;16.80;99.90;;;;;;4957660;29;20408;-77
2021/06/24 03:51:19;;;;;;;6.03;4.13;;;16.70;99.90;;;;;;4939996;29;20415;-76
2021/06/24 03:53:44;;;;;;;8.10;4.37;;;16.70;99.90;;;;;;4957017;29;20470;-75
2021/06/24 03:56:10;;;;;;;8.83;5.10;;;16.80;99.90;;;;;;4939930;29;20419;-76
2021/06/24 03:58:36;;;;;;;9.43;5.30;;;16.80;99.90;;;;;;4939841;29;20194;-76
2021/06/24 04:01:02;;;;;;;6.90;4.73;;;16.80;99.90;;;;;;4956881;29;20459;-76
2021/06/24 04:03:27;;;;;;;8.43;4.83;;;16.70;99.90;;;;;;4956558;29;20282;-77
2021/06/24 04:05:53;;;;;;;5.23;4.10;;;16.70;99.90;;;;;;4939051;29;20187;-76
2021/06/24 04:08:19;;;;;;;11.60;5.77;;;16.70;99.90;;;;;;4956758;29;20172;-77
2021/06/24 04:10:45;;;;;;;11.33;4.90;;;16.80;99.90;;;;;;4953819;29;20464;-77
2021/06/24 04:13:11;;;;;;;6.67;5.77;;;16.80;99.90;;;;;;4937223;29;20845;-77
2021/06/24 04:15:36;;;;;;;7.37;5.00;;;16.90;99.90;;;;;;4937506;29;20428;-77
2021/06/24 04:18:04;;;;;;;9.00;5.73;;;16.90;99.90;;;;;;4920748;29;20205;-76
2021/06/24 04:20:31;;;;;;;8.13;5.17;;;16.90;99.90;;;;;;4930398;29;20286;-76
2021/06/24 04:22:57;;;;;;;9.37;5.10;;;17.00;99.90;;;;;;4953202;29;20443;-76
2021/06/24 04:25:23;;;;;;;9.13;5.43;;;16.90;99.90;;;;;;4925543;29;20454;-76
2021/06/24 04:27:49;;;;;;;9.20;5.30;;;17.00;99.90;;;;;;4956303;29;20451;-77
2021/06/24 04:30:16;;;;;;;12.20;5.40;;;17.10;99.90;;;;;;4956397;29;20854;-76
2021/06/24 04:32:42;;;;;;;10.13;5.73;;;17.20;99.90;;;;;;4938717;29;20815;-75
2021/06/24 04:35:08;;;;;;;7.03;5.07;;;17.20;99.90;;;;;;4955947;29;20434;-75
2021/06/24 04:37:34;;;;;;;27.73;5.60;;;17.10;99.90;;;;;;4956353;29;20176;-76
2021/06/24 04:40:00;;;;;;;6.90;5.67;;;17.10;99.90;;;;;;4955783;29;20455;-75
2021/06/24 04:42:25;;;;;;;9.17;5.33;;;17.00;99.90;;;;;;4938204;29;20447;-76
2021/06/24 04:44:51;;;;;;;12.63;5.77;;;17.00;99.90;;;;;;4956184;29;20176;-76
2021/06/24 04:47:17;;;;;;;8.33;5.67;;;16.90;99.90;;;;;;4938706;29;20667;-76
2021/06/24 04:49:42;;;;;;;7.67;4.90;;;16.90;99.90;;;;;;4955842;29;20664;-76
2021/06/24 04:52:08;;;;;;;6.80;4.80;;;17.00;99.90;;;;;;4955783;29;20535;-75
2021/06/24 04:54:34;;;;;;;15.30;6.87;;;17.10;99.90;;;;;;4955819;29;20184;-76
2021/06/24 04:56:59;;;;;;;8.20;5.33;;;17.10;99.90;;;;;;4937445;29;20192;-76
2021/06/24 04:59:25;;;;;;;7.63;5.20;;;17.20;99.90;;;;;;4955201;29;20224;-77
2021/06/24 05:01:50;;;;;;;12.43;5.40;;;17.10;99.90;;;;;;4954935;29;20188;-76
2021/06/24 05:04:17;;;;;;;12.77;5.73;;;17.10;99.90;;;;;;4955704;28;20200;-76
2021/06/24 05:06:43;;;;;;;8.40;5.20;;;17.10;99.90;;;;;;4955882;29;20690;-75
2021/06/24 05:09:08;;;;;;;12.80;5.27;;;17.00;99.90;;;;;;4955358;29;20424;-75
2021/06/24 05:11:34;;;;;;;12.17;5.50;;;17.10;99.90;;;;;;4955462;29;20194;-76
2021/06/24 05:13:59;;;;;;;7.17;5.20;;;17.10;99.90;;;;;;4955361;28;20207;-76
2021/06/24 05:16:25;;;;;;;16.37;6.60;;;17.00;99.90;;;;;;4955065;29;20718;-75
2021/06/24 05:18:51;;;;;;;15.73;6.83;;;16.80;99.90;;;;;;4954272;29;20180;-76
2021/06/24 05:21:17;;;;;;;14.23;7.53;;;16.90;99.90;;;;;;4945400;29;20216;-76
2021/06/24 05:23:43;;;;;;;10.20;6.47;;;17.00;99.90;;;;;;4947678;29;20223;-76
2021/06/24 05:26:09;;;;;;;7.60;6.80;;;17.10;99.90;;;;;;4936690;29;20897;-76
2021/06/24 05:28:35;;;;;;;10.10;6.30;;;17.20;99.90;;;;;;4949472;29;20180;-76
2021/06/24 05:31:02;;;;;;;17.83;6.57;;;17.40;99.90;;;;;;4955300;29;20560;-76
2021/06/24 05:33:27;;;;;;;21.80;6.70;;;17.30;99.90;;;;;;4955327;29;20808;-76
2021/06/24 05:35:53;;;;;;;9.63;7.53;;;17.10;99.90;;;;;;4952583;29;20443;-76
2021/06/24 05:38:19;;;;;;;9.50;7.27;;;17.10;99.90;;;;;;4936257;29;20244;-77
2021/06/24 05:40:47;;;;;;;13.20;7.30;;;17.10;99.90;;;;;;4941997;29;20256;-76
2021/06/24 05:43:14;;;;;;;13.07;7.20;;;17.00;99.90;;;;;;4937689;29;20475;-76
2021/06/24 05:45:39;;;;;;;9.33;7.07;;;17.00;99.90;;;;;;4937643;29;20943;-76
2021/06/24 05:48:05;;;;;;;11.27;7.60;;;17.00;99.90;;;;;;4954962;29;20523;-76
2021/06/24 05:50:31;;;;;;;12.33;7.00;;;16.90;99.90;;;;;;4938076;29;20180;-76
2021/06/24 05:52:56;;;;;;;10.77;7.13;;;16.80;99.90;;;;;;4952122;28;20254;-76
2021/06/24 05:58:12;;;;;;;11.03;6.87;;;16.90;99.90;;;;;;4939691;29;20191;-76
2021/06/24 06:00:38;;;;;;;8.87;7.03;;;16.90;99.90;;;;;;4951229;29;20518;-76
2021/06/24 06:03:05;;;;;;;9.33;7.43;;;16.90;99.90;;;;;;4953290;29;20834;-76
2021/06/24 06:05:32;;;;;;;18.60;8.20;;;16.90;99.90;;;;;;4953976;29;20422;-76
2021/06/24 06:07:59;;;;;;;13.60;7.17;;;16.90;99.90;;;;;;4953441;28;20458;-77
2021/06/24 06:10:25;;;;;;;11.63;7.17;;;16.80;99.90;;;;;;4953430;29;20443;-77
2021/06/24 06:12:50;;;;;;;11.20;7.37;;;16.80;99.90;;;;;;4949073;29;20460;-76
2021/06/24 06:15:16;;;;;;;14.47;7.90;;;17.00;99.90;;;;;;4971193;28;20473;-77
2021/06/24 06:17:41;;;;;;;8.43;6.40;;;17.10;99.90;;;;;;4959418;28;20192;-77
2021/06/24 06:20:07;;;;;;;20.30;7.77;;;17.30;99.90;;;;;;4953000;29;20201;-78
2021/06/24 06:22:33;;;;;;;14.03;7.53;;;17.30;99.90;;;;;;4955251;28;20205;-79
2021/06/24 06:24:59;;;;;;;13.87;7.57;;;17.10;99.90;;;;;;4937589;29;20553;-78
2021/06/24 06:27:25;;;;;;;11.47;7.00;;;17.00;99.90;;;;;;4954750;29;20215;-78
2021/06/24 06:29:50;;;;;;;13.50;7.70;;;17.00;99.90;;;;;;4937214;29;20999;-76
2021/06/24 06:32:17;;;;;;;11.80;8.00;;;17.00;99.90;;;;;;4954523;29;20192;-78
2021/06/24 06:34:43;;;;;;;11.07;7.80;;;17.00;99.90;;;;;;4937614;29;20261;-78
2021/06/24 06:37:08;;;;;;;14.33;9.03;;;17.00;99.90;;;;;;4956169;29;20420;-79
2021/06/24 06:39:34;;;;;;;9.00;7.10;;;17.00;99.90;;;;;;4956633;29;20766;-80
2021/06/24 06:41:59;;;;;;;10.60;7.57;;;17.20;99.90;;;;;;4956794;29;20251;-78
2021/06/24 06:44:25;;;;;;;11.30;7.77;;;17.30;99.90;;;;;;4954889;29;20177;-77
2021/06/24 06:46:50;;;;;;;11.43;7.97;;;17.40;99.90;;;;;;4954293;29;20539;-78
2021/06/24 06:49:17;;;;;;;14.77;8.43;;;17.50;99.90;;;;;;4937068;29;20652;-77
2021/06/24 06:51:42;;;;;;;14.40;8.20;;;17.40;99.90;;;;;;4954083;29;20186;-78
2021/06/24 06:54:08;;;;;;;9.60;7.17;;;17.30;99.90;;;;;;4954149;29;20959;-79
2021/06/24 06:56:33;;;;;;;9.53;7.23;;;17.40;99.90;;;;;;4954311;29;20240;-78
2021/06/24 06:59:01;;;;;;;12.57;7.60;;;17.50;99.90;;;;;;4954644;29;20242;-78
2021/06/24 07:01:26;;;;;;;11.10;7.97;;;17.50;99.90;;;;;;4953669;29;20228;-78
2021/06/24 07:03:52;;;;;;;11.47;8.27;;;17.70;99.90;;;;;;4952603;28;20428;-78
2021/06/24 07:06:18;;;;;;;9.60;7.00;;;17.80;99.90;;;;;;4955883;28;20173;-77
2021/06/24 07:08:43;;;;;;;14.57;8.87;;;17.90;99.90;;;;;;4973323;28;20169;-77
2021/06/24 07:11:09;;;;;;;12.43;6.63;;;18.00;99.90;;;;;;4937474;29;20190;-78
2021/06/24 07:13:35;;;;;;;10.67;7.30;;;18.30;99.90;;;;;;4953525;28;20289;-77
2021/06/24 07:16:01;;;;;;;12.37;6.90;;;18.30;99.90;;;;;;4953047;29;21000;-77
2021/06/24 07:18:27;;;;;;;9.47;7.00;;;18.50;99.90;;;;;;4935847;29;20423;-77
2021/06/24 07:20:53;;;;;;;12.33;6.83;;;18.50;99.90;;;;;;4920501;29;20239;-77
2021/06/24 07:23:19;;;;;;;13.03;8.23;;;18.60;99.90;;;;;;4951669;29;20624;-77
2021/06/24 07:25:45;;;;;;;12.40;8.27;;;18.60;99.90;;;;;;4953426;29;20454;-76
2021/06/24 07:28:10;;;;;;;11.33;8.73;;;18.70;99.90;;;;;;4953447;29;20250;-77
2021/06/24 07:30:36;;;;;;;11.07;8.23;;;18.60;99.90;;;;;;4953467;29;20921;-78
2021/06/24 07:33:02;;;;;;;12.57;7.93;;;18.50;99.90;;;;;;4935664;29;20204;-77
2021/06/24 07:35:27;;;;;;;12.97;8.57;;;18.20;99.90;;;;;;4936169;29;20243;-77
2021/06/24 07:37:53;;;;;;;13.70;7.87;;;18.20;99.90;;;;;;4936123;29;20643;-77
2021/06/24 07:40:19;;;;;;;13.13;8.10;;;18.20;99.90;;;;;;4936233;29;20325;-76
2021/06/24 07:42:47;;;;;;;13.57;9.30;;;18.40;99.90;;;;;;4952389;28;20189;-77
2021/06/24 07:45:13;;;;;;;12.90;9.53;;;18.40;99.90;;;;;;4953283;29;20168;-77
2021/06/24 07:47:39;;;;;;;16.43;10.20;;;18.50;99.90;;;;;;4952275;29;20430;-77
2021/06/24 07:50:05;;;;;;;12.53;8.80;;;18.70;99.90;;;;;;4953033;29;20176;-77
2021/06/24 07:52:31;;;;;;;15.30;8.30;;;18.60;99.90;;;;;;4935622;29;20207;-78
2021/06/24 07:54:57;;;;;;;13.97;9.00;;;18.70;99.90;;;;;;4953252;29;20515;-78
2021/06/24 07:57:22;;;;;;;13.10;9.03;;;18.40;99.90;;;;;;4953303;29;20204;-77
2021/06/24 07:59:48;;;;;;;14.50;9.00;;;18.40;99.90;;;;;;4935904;29;20230;-79
2021/06/24 08:02:14;;;;;;;16.60;9.20;;;18.50;99.90;;;;;;4952403;29;20217;-78
2021/06/24 08:04:39;;;;;;;12.70;9.03;;;18.60;99.90;;;;;;4953279;29;20196;-82
2021/06/24 08:07:05;;;;;;;13.47;8.60;;;18.70;99.90;;;;;;4935680;29;20427;-77
2021/06/24 08:09:30;;;;;;;17.67;9.20;;;18.70;99.90;;;;;;4944975;29;20692;-77
2021/06/24 08:11:57;;;;;;;16.93;9.10;;;19.00;99.90;;;;;;4947895;29;20187;-78
2021/06/24 08:14:23;;;;;;;12.57;8.40;;;19.20;99.90;;;;;;4924024;29;20176;-78
2021/06/24 08:16:49;;;;;;;12.17;8.83;;;19.30;99.90;;;;;;4935614;29;20433;-78
2021/06/24 08:19:15;;;;;;;16.60;8.90;;;19.30;99.90;;;;;;4935314;29;20416;-78
2021/06/24 08:21:41;;;;;;;14.73;8.40;;;19.30;99.90;;;;;;4935466;29;21075;-77
2021/06/24 08:24:07;;;;;;;15.43;9.23;;;19.00;99.90;;;;;;4952720;28;20484;-78
2021/06/24 08:26:32;;;;;;;16.43;10.27;;;19.20;99.90;;;;;;4952559;29;20176;-77
2021/06/24 08:28:58;;;;;;;13.37;8.83;;;19.10;99.90;;;;;;4952173;29;20183;-77
2021/06/24 08:31:24;;;;;;;16.20;9.57;;;19.00;99.90;;;;;;4937443;29;20184;-77
2021/06/24 08:33:49;;;;;;;16.93;10.53;;;19.10;99.90;;;;;;4956082;28;20827;-78
2021/06/24 08:36:15;;;;;;;16.53;9.33;;;19.20;99.90;;;;;;4956337;29;20259;-77
2021/06/24 08:38:41;;;;;;;20.00;8.63;;;19.20;99.90;;;;;;4956291;29;20373;-77
2021/06/24 08:41:07;;;;;;;12.90;8.43;;;19.40;99.90;;;;;;4956077;29;20208;-78
2021/06/24 08:43:33;;;;;;;15.23;8.90;;;19.20;99.90;;;;;;4956136;28;20574;-78
2021/06/24 08:46:03;;;;;;;10.77;8.27;;;18.90;99.90;;;;;;4955755;29;20434;-77
2021/06/24 08:48:35;;;;;;;13.90;7.53;;;18.70;99.90;;;;;;4939398;29;20176;-77
2021/06/24 08:51:01;;;;;;;15.60;8.33;;;18.60;99.90;;;;;;4955876;29;20428;-78
2021/06/24 08:53:29;;;;;;;11.53;8.17;;;18.80;99.90;;;;;;4955223;28;20454;-77
2021/06/24 08:55:55;;;;;;;14.50;11.70;;;18.90;99.90;;;;;;4955748;29;20522;-77
2021/06/24 08:58:22;;;;;;;10.70;8.63;;;18.80;99.90;;;;;;4955555;29;20418;-77
2021/06/24 09:00:48;;;;;;;13.40;8.80;;;18.80;99.90;;;;;;4938938;29;20528;-77
2021/06/24 09:03:15;;;;;;;16.60;9.90;;;19.00;99.90;;;;;;4922602;29;20510;-77
2021/06/24 09:05:55;;;;;;;14.50;9.10;;;18.80;99.90;;;;;;4956122;29;20431;-77
2021/06/24 09:08:44;;;;;;;19.70;9.67;;;18.70;99.90;;;;;;4955848;29;20786;-77
2021/06/24 09:11:23;;;;;;;15.77;8.83;;;18.70;99.90;;;;;;4955693;29;20831;-77
2021/06/24 09:14:05;;;;;;;15.53;8.80;;;18.80;99.90;;;;;;4938289;29;20511;-76
2021/06/24 09:16:31;;;;;;;19.53;10.10;;;18.90;99.90;;;;;;4955786;29;20931;-77
2021/06/24 09:19:19;;;;;;;14.00;8.43;;;19.00;99.90;;;;;;4937838;29;20420;-77
2021/06/24 09:21:53;;;;;;;15.20;8.77;;;19.00;99.90;;;;;;4955728;29;20459;-78
2021/06/24 09:24:23;;;;;;;12.13;9.37;;;19.10;99.90;;;;;;4955952;28;20436;-77
2021/06/24 09:26:49;;;;;;;14.60;9.20;;;19.10;99.90;;;;;;4955646;29;20518;-78
2021/06/24 09:29:16;;;;;;;13.00;8.53;;;19.20;99.90;;;;;;4938253;29;20881;-78
2021/06/24 09:31:43;;;;;;;17.40;9.10;;;19.20;99.90;;;;;;4907419;29;20216;-78
2021/06/24 09:34:10;;;;;;;13.30;8.93;;;19.30;99.90;;;;;;4922546;29;20451;-77
2021/06/24 09:36:42;;;;;;;12.73;9.47;;;19.30;99.90;;;;;;4955702;29;20420;-77
2021/06/24 09:39:24;;;;;;;13.90;10.07;;;19.20;99.90;;;;;;4955485;29;20427;-78
2021/06/24 09:42:02;;;;;;;12.50;10.40;;;19.10;99.90;;;;;;4937628;29;20469;-78
2021/06/24 09:44:30;;;;;;;15.87;9.67;;;19.00;99.90;;;;;;4938199;29;20518;-77
2021/06/24 09:46:57;;;;;;;13.00;10.00;;;19.20;99.90;;;;;;4955032;29;20455;-77
2021/06/24 09:49:34;;;;;;;13.27;9.73;;;19.30;99.90;;;;;;4955051;29;20399;-78
2021/06/24 09:52:02;;;;;;;12.80;9.63;;;19.40;99.90;;;;;;4954478;29;20420;-77
2021/06/24 09:54:43;;;;;;;12.77;9.10;;;19.70;99.90;;;;;;4954818;29;20408;-77
2021/06/24 09:57:23;;;;;;;13.27;10.00;;;19.70;99.90;;;;;;4938104;29;20432;-76
2021/06/24 09:59:49;;;;;;;11.80;8.60;;;19.60;99.90;;;;;;4937640;29;20459;-77
2021/06/24 10:02:15;;;;;;;19.27;10.03;;;19.70;99.90;;;;;;4954364;28;20424;-77
2021/06/24 10:04:48;;;;;;;16.97;10.10;;;19.70;99.90;;;;;;4955497;29;20473;-76
2021/06/24 10:07:16;;;;;;;16.27;9.70;;;20.10;99.90;;;;;;4938040;29;20420;-77
2021/06/24 10:09:43;;;;;;;13.67;10.17;;;20.20;99.90;;;;;;4955117;29;20421;-77
2021/06/24 10:12:13;;;;;;;15.77;9.87;;;20.10;99.90;;;;;;4937188;29;20496;-77
2021/06/24 10:14:39;;;;;;;13.80;9.23;;;20.20;99.90;;;;;;4954814;29;21121;-76
2021/06/24 10:17:06;;;;;;;13.07;9.40;;;19.70;99.90;;;;;;4954348;29;20967;-77
2021/06/24 10:19:35;;;;;;;14.87;8.70;;;19.40;99.90;;;;;;4953801;29;20882;-77
2021/06/24 10:22:12;;;;;;;13.73;9.93;;;19.30;99.90;;;;;;4953843;29;20412;-76
2021/06/24 10:24:51;;;;;;;12.00;7.97;;;19.20;99.90;;;;;;4937044;29;20543;-77
2021/06/24 10:27:17;;;;;;;12.07;7.13;;;19.10;99.90;;;;;;4954616;29;20466;-76
2021/06/24 10:29:51;;;;;;;11.20;8.23;;;19.10;99.90;;;;;;4954217;29;20431;-77
2021/06/24 10:32:34;;;;;;;12.30;7.90;;;19.20;99.90;;;;;;4953700;29;20442;-75
2021/06/24 10:35:07;;;;;;;12.57;9.03;;;19.10;99.90;;;;;;4936712;29;20432;-76
2021/06/24 10:37:34;;;;;;;12.10;8.30;;;19.10;99.90;;;;;;4954178;29;20416;-75
2021/06/24 10:40:21;;;;;;;11.57;8.00;;;19.20;99.90;;;;;;4954267;29;20513;-77
2021/06/24 10:42:52;;;;;;;10.83;8.00;;;19.20;99.90;;;;;;4953042;29;20443;-77
2021/06/24 10:45:17;;;;;;;11.30;8.10;;;19.30;99.90;;;;;;4953833;29;20415;-76
2021/06/24 10:47:43;;;;;;;11.27;7.57;;;19.30;99.90;;;;;;4952841;29;20426;-76
2021/06/24 10:50:29;;;;;;;11.93;8.60;;;19.40;99.90;;;;;;4920356;29;20188;-77
2021/06/24 10:52:56;;;;;;;17.33;7.20;;;19.70;99.90;;;;;;4935354;28;20510;-77
2021/06/24 10:55:35;;;;;;;10.10;7.30;;;19.70;99.90;;;;;;4935778;29;20490;-77
2021/06/24 10:58:27;;;;;;;13.10;7.23;;;19.80;99.90;;;;;;4953857;29;20437;-77
2021/06/24 11:00:59;;;;;;;17.63;8.90;;;19.90;99.90;;;;;;4953331;29;20776;-77
2021/06/24 11:03:31;;;;;;;9.53;7.30;;;20.10;99.90;;;;;;4952722;28;20451;-77
2021/06/24 11:06:12;;;;;;;13.03;8.20;;;20.10;99.90;;;;;;4936090;29;20412;-76
2021/06/24 11:08:41;;;;;;;10.37;9.00;;;20.20;99.90;;;;;;4934571;29;20420;-76
2021/06/24 11:11:14;;;;;;;9.37;7.10;;;20.30;99.90;;;;;;4947985;29;20452;-77
2021/06/24 11:13:41;;;;;;;9.73;6.53;;;20.60;99.90;;;;;;4953135;29;20648;-77
2021/06/24 11:16:07;;;;;;;11.17;6.37;;;20.50;99.90;;;;;;4952106;29;20465;-77
2021/06/24 11:18:36;;;;;;;9.57;7.67;;;20.60;99.90;;;;;;4936320;29;20434;-76
2021/06/24 11:21:04;;;;;;;12.40;7.50;;;20.50;99.90;;;;;;4953366;29;21024;-76
2021/06/24 11:23:35;;;;;;;7.63;5.90;;;20.50;99.90;;;;;;4952967;29;20949;-76
2021/06/24 11:26:13;;;;;;;15.10;6.73;;;20.40;99.90;;;;;;4953587;29;20405;-77
2021/06/24 11:28:50;;;;;;;9.40;7.20;;;20.20;99.90;;;;;;4953315;29;20411;-76
2021/06/24 11:31:38;;;;;;;15.43;7.90;;;20.30;99.90;;;;;;4953072;29;20418;-76
2021/06/24 11:36:35;;;;;;;8.30;6.50;;;20.20;99.90;;;;;;4953519;29;20420;-76
2021/06/24 11:39:00;;;;;;;8.37;5.97;;;20.10;99.90;;;;;;4954208;29;20408;-76
2021/06/24 11:41:26;;;;;;;9.50;7.13;;;20.10;99.90;;;;;;4953122;29;20261;-76
2021/06/24 11:44:03;;;;;;;8.40;7.47;;;20.30;99.90;;;;;;4953014;28;20198;-76
2021/06/24 11:46:31;;;;;;;11.00;8.00;;;20.40;99.90;;;;;;4953253;29;20176;-76
2021/06/24 12:05:27;;;;;;;15.83;7.00;;;21.40;99.90;;;;;;4940281;29;21238;-75
2021/06/24 12:07:53;;;;;;;9.60;7.10;;;21.40;99.90;;;;;;4956885;29;20459;-76
2021/06/24 12:10:23;;;;;;;7.37;6.40;;;20.70;99.90;;;;;;4956906;29;20540;-76
2021/06/24 12:12:49;;;;;;;7.20;6.10;;;20.50;99.90;;;;;;4939109;29;20454;-76
2021/06/24 12:15:15;;;;;;;11.00;6.37;;;20.70;99.90;;;;;;4956592;29;20441;-76
2021/06/24 12:17:41;;;;;;;12.07;6.43;;;20.70;99.90;;;;;;4956713;29;20457;-76
2021/06/24 12:20:12;;;;;;;8.10;6.00;;;20.80;99.90;;;;;;4956800;29;20458;-78
2021/06/24 12:22:58;;;;;;;9.40;6.30;;;20.80;99.90;;;;;;4956192;29;20196;-77
2021/06/24 12:25:27;;;;;;;7.63;5.10;;;20.70;99.90;;;;;;4940266;29;20422;-77
2021/06/24 12:27:58;;;;;;;5.90;5.30;;;20.80;99.90;;;;;;4923280;29;20582;-77
2021/06/24 12:30:23;;;;;;;8.77;7.10;;;21.00;99.90;;;;;;4956612;29;20442;-77
2021/06/24 12:33:03;;;;;;;18.03;9.30;;;21.20;99.90;;;;;;4938864;29;20513;-76
2021/06/24 12:35:39;;;;;;;7.47;5.63;;;21.50;99.90;;;;;;4939513;29;20501;-76
2021/06/24 12:38:07;;;;;;;6.50;5.47;;;21.70;99.90;;;;;;4939678;29;20434;-78
2021/06/24 12:40:39;;;;;;;5.80;4.80;;;21.50;99.90;;;;;;4956180;29;20554;-77
2021/06/24 12:43:06;;;;;;;6.80;4.80;;;21.50;99.90;;;;;;4956215;29;20431;-77
2021/06/24 12:45:36;;;;;;;6.97;4.40;;;21.50;99.90;;;;;;4956154;29;20407;-77
2021/06/24 12:48:02;;;;;;;11.33;5.00;;;21.40;99.90;;;;;;4938524;29;20876;-77
2021/06/24 12:50:35;;;;;;;7.97;5.60;;;21.40;99.90;;;;;;4955538;29;20466;-77
2021/06/24 12:53:02;;;;;;;9.00;5.30;;;21.30;99.90;;;;;;4955412;29;20454;-77
2021/06/24 12:55:37;;;;;;;6.77;5.67;;;21.40;99.90;;;;;;4956069;29;20434;-77
2021/06/24 12:58:31;;;;;;;7.50;5.67;;;21.70;99.90;;;;;;4955739;29;20423;-76
2021/06/24 13:01:10;;;;;;;9.03;5.70;;;21.90;99.90;;;;;;4946024;29;20467;-77
2021/06/24 13:03:45;;;;;;;7.17;5.10;;;21.80;99.90;;;;;;4938198;29;20447;-77
2021/06/24 13:06:20;;;;;;;8.20;5.13;;;21.70;99.90;;;;;;4955193;28;20911;-77